Time;durP1;ratioP1;P1;durP2;ratioP2;P2;SDS_P1;SDS_P2;PMS_P1;PMS_P2;Temp;Humidity;BMP_temperature;BMP_pressure;BME280_temperature;BME280_humidity;BME280_pressure;Samples;Min_cycle;Max_cycle;Signal;HPM_P1;HPM_P2
2021/12/24 00:02:11;;;;;;;19.60;10.65;;;;;;;-8.48;65.53;100673.05;1800282;79;21460;-72
2021/12/24 00:04:38;;;;;;;19.30;10.30;;;;;;;-8.48;65.40;100669.64;1774396;79;21031;-71
2021/12/24 00:07:05;;;;;;;17.98;9.68;;;;;;;-8.48;65.38;100667.05;1784880;79;21978;-72
2021/12/24 00:09:34;;;;;;;20.75;10.15;;;;;;;-8.45;65.33;100663.72;1791884;78;20927;-71
2021/12/24 00:12:05;;;;;;;16.60;9.68;;;;;;;-8.43;65.33;100664.39;1801243;79;21110;-71
2021/12/24 00:14:31;;;;;;;17.05;9.40;;;;;;;-8.44;65.24;100658.88;1800926;79;21454;-71
2021/12/24 00:17:02;;;;;;;17.57;9.93;;;;;;;-8.45;65.23;100653.36;1796101;79;21076;-72
2021/12/24 00:35:35;;;;;;;16.55;9.10;;;;;;;-8.52;64.89;100625.06;1770672;78;21081;-72
2021/12/24 00:38:05;;;;;;;17.20;9.38;;;;;;;-8.53;64.88;100620.81;1770216;78;21056;-72
2021/12/24 00:40:41;;;;;;;17.82;8.78;;;;;;;-8.51;64.92;100611.15;1769484;80;21518;-72
2021/12/24 00:43:08;;;;;;;17.50;9.60;;;;;;;-8.50;64.91;100607.59;1769767;80;20964;-72
2021/12/24 00:45:37;;;;;;;16.35;8.75;;;;;;;-8.48;64.89;100599.23;1789816;79;21138;-72
2021/12/24 00:48:06;;;;;;;17.35;8.63;;;;;;;-8.46;64.89;100600.38;1799944;79;21053;-72
2021/12/24 00:50:50;;;;;;;16.87;9.25;;;;;;;-8.46;64.88;100584.36;1800338;79;21079;-72
2021/12/24 00:55:02;;;;;;;16.17;9.30;;;;;;;-8.44;64.89;100586.84;1805768;78;21093;-73
2021/12/24 00:55:35;;;;;;;19.42;8.70;;;;;;;-8.43;64.88;100585.39;1822189;78;21073;-72
2021/12/24 00:58:04;;;;;;;18.62;8.40;;;;;;;-8.39;64.88;100576.88;1816543;78;21080;-72
2021/12/24 01:00:35;;;;;;;15.50;8.60;;;;;;;-8.36;64.86;100568.80;1797648;78;21061;-72
2021/12/24 01:03:04;;;;;;;16.95;8.85;;;;;;;-8.36;64.83;100557.16;1797591;79;21085;-71
2021/12/24 01:05:33;;;;;;;17.35;9.35;;;;;;;-8.35;64.84;100558.33;1792772;79;21090;-72
2021/12/24 01:07:59;;;;;;;15.30;8.58;;;;;;;-8.33;64.80;100553.81;1772492;79;20988;-71
2021/12/24 01:10:31;;;;;;;15.08;8.93;;;;;;;-8.32;64.76;100548.99;1792083;79;21477;-72
2021/12/24 01:12:58;;;;;;;15.98;8.55;;;;;;;-8.35;64.72;100544.08;1769091;80;28512;-72
2021/12/24 01:15:28;;;;;;;16.48;8.13;;;;;;;-8.34;64.68;100541.82;1774275;79;21014;-72
2021/12/24 01:20:39;;;;;;;17.55;8.18;;;;;;;-8.42;64.62;100532.66;1795692;78;20915;-72
2021/12/24 01:38:55;;;;;;;17.30;8.35;;;;;;;-8.56;64.71;100492.88;1787454;79;21494;-71
2021/12/24 01:41:07;;;;;;;14.23;8.05;;;;;;;-8.58;64.77;100481.38;1766523;80;20983;-71
2021/12/24 01:43:31;;;;;;;13.90;7.67;;;;;;;-8.60;64.83;100479.39;1771598;78;21098;-71
2021/12/24 01:45:59;;;;;;;15.38;8.18;;;;;;;-8.61;64.85;100461.41;1797353;79;20918;-71
2021/12/24 01:48:26;;;;;;;16.12;8.68;;;;;;;-8.63;64.89;100451.66;1797304;79;21174;-72
2021/12/24 01:50:54;;;;;;;14.98;8.43;;;;;;;-8.63;64.94;100445.19;1773094;79;20939;-72
2021/12/24 01:53:24;;;;;;;18.15;8.95;;;;;;;-8.63;64.98;100443.41;1792770;78;20963;-72
2021/12/24 01:55:51;;;;;;;15.80;8.23;;;;;;;-8.62;65.03;100436.45;1781093;79;21470;-72
2021/12/24 01:58:21;;;;;;;17.25;8.38;;;;;;;-8.58;65.08;100432.18;1800818;79;20956;-72
2021/12/24 02:00:50;;;;;;;17.05;8.48;;;;;;;-8.58;65.09;100430.89;1792168;78;21463;-71
2021/12/24 02:03:19;;;;;;;17.02;8.48;;;;;;;-8.58;65.16;100423.60;1776456;78;21030;-72
2021/12/24 02:05:46;;;;;;;19.52;8.60;;;;;;;-8.57;65.19;100427.34;1769439;80;21031;-72
2021/12/24 02:08:13;;;;;;;17.12;8.90;;;;;;;-8.58;65.24;100422.31;1780736;78;20968;-72
2021/12/24 02:10:40;;;;;;;13.53;8.03;;;;;;;-8.59;65.32;100418.06;1797176;79;22099;-71
2021/12/24 02:13:08;;;;;;;14.55;8.55;;;;;;;-8.59;65.38;100411.59;1797375;79;21503;-72
2021/12/24 02:15:59;;;;;;;14.45;8.65;;;;;;;-8.58;65.43;100402.41;1796939;79;21046;-71
2021/12/24 02:28:57;;;;;;;15.13;8.43;;;;;;;-8.57;65.60;100368.26;1769387;80;20991;-71
2021/12/24 02:31:26;;;;;;;17.77;8.98;;;;;;;-8.56;65.63;100356.94;1769706;80;21462;-73
2021/12/24 02:33:53;;;;;;;15.75;8.50;;;;;;;-8.56;65.62;100362.11;1769249;80;21422;-73
2021/12/24 02:36:21;;;;;;;16.55;8.65;;;;;;;-8.57;65.58;100356.13;1769437;80;21551;-72
2021/12/24 02:38:50;;;;;;;15.98;8.85;;;;;;;-8.55;65.59;100356.00;1800332;79;22095;-71
2021/12/24 02:41:17;;;;;;;17.23;8.65;;;;;;;-8.58;65.56;100346.73;1801071;79;21019;-72
2021/12/24 02:43:43;;;;;;;16.40;8.40;;;;;;;-8.60;65.56;100342.16;1801029;79;21560;-70
2021/12/24 02:46:14;;;;;;;15.98;8.88;;;;;;;-8.60;65.54;100347.81;1798165;79;21486;-71
2021/12/24 02:54:07;;;;;;;18.37;9.05;;;;;;;-8.71;65.57;100320.80;1776226;79;21030;-72
2021/12/24 02:56:37;;;;;;;17.80;9.30;;;;;;;-8.72;65.60;100329.01;1800730;79;21345;-71
2021/12/24 02:59:07;;;;;;;13.95;7.85;;;;;;;-8.74;65.62;100320.58;1796937;79;21564;-71
2021/12/24 03:01:39;;;;;;;20.70;8.93;;;;;;;-8.76;65.67;100311.64;1796808;79;21092;-72
2021/12/24 03:04:05;;;;;;;16.62;8.80;;;;;;;-8.76;65.83;100311.64;1799438;79;21163;-72
2021/12/24 03:06:38;;;;;;;21.50;9.43;;;;;;;-8.75;65.73;100317.19;1798629;79;20999;-71
2021/12/24 03:09:08;;;;;;;18.15;9.70;;;;;;;-8.75;65.74;100308.13;1796387;79;20971;-71
2021/12/24 03:11:35;;;;;;;21.25;10.38;;;;;;;-8.73;65.76;100296.32;1797681;79;21509;-71
2021/12/24 03:14:04;;;;;;;20.08;10.08;;;;;;;-8.72;65.82;100298.43;1797310;79;21517;-70
2021/12/24 03:16:31;;;;;;;22.48;10.60;;;;;;;-8.71;65.86;100294.91;1800146;78;21085;-72
2021/12/24 03:18:58;;;;;;;18.10;9.13;;;;;;;-8.71;65.93;100294.42;1798357;78;21027;-72
2021/12/24 03:21:49;;;;;;;21.55;9.65;;;;;;;-8.70;65.95;100290.06;1775231;79;21510;-71
2021/12/24 03:26:35;;;;;;;19.05;10.58;;;;;;;-8.67;66.01;100269.88;1790033;79;20995;-71
2021/12/24 03:29:06;;;;;;;16.87;9.63;;;;;;;-8.66;66.06;100267.63;1801477;79;21077;-71
2021/12/24 03:31:33;;;;;;;21.30;9.98;;;;;;;-8.66;66.09;100262.92;1801303;79;20944;-72
2021/12/24 03:34:00;;;;;;;21.77;10.70;;;;;;;-8.65;66.16;100258.08;1801029;79;21043;-72
2021/12/24 03:36:27;;;;;;;25.82;11.85;;;;;;;-8.65;66.19;100251.61;1783965;78;20962;-72
2021/12/24 03:38:54;;;;;;;24.12;11.35;;;;;;;-8.64;66.27;100238.54;1770566;78;20927;-72
2021/12/24 03:41:21;;;;;;;21.17;10.18;;;;;;;-8.63;66.33;100245.34;1769871;80;21506;-72
2021/12/24 03:43:47;;;;;;;19.73;10.60;;;;;;;-8.60;66.35;100237.30;1769559;79;20995;-72
2021/12/24 03:46:17;;;;;;;23.12;10.13;;;;;;;-8.60;66.36;100230.01;1796800;79;21006;-72
2021/12/24 03:48:52;;;;;;;23.32;10.28;;;;;;;-8.57;66.45;100218.88;1797055;79;20935;-72
2021/12/24 03:56:33;;;;;;;18.00;9.00;;;;;;;-8.46;66.68;100215.78;1793895;79;21489;-72
2021/12/24 03:59:00;;;;;;;17.85;9.58;;;;;;;-8.45;66.72;100209.66;1769652;80;20960;-72
2021/12/24 04:01:39;;;;;;;18.70;9.53;;;;;;;-8.43;66.78;100199.95;1797828;79;21042;-71
2021/12/24 04:04:15;;;;;;;17.82;9.30;;;;;;;-8.41;66.83;100195.46;1761072;80;21593;-71
2021/12/24 04:07:03;;;;;;;19.07;9.48;;;;;;;-8.38;66.84;100186.92;1768287;80;22721;-72
2021/12/24 04:09:37;;;;;;;23.83;9.80;;;;;;;-8.37;66.86;100187.22;1742971;80;21521;-72
2021/12/24 04:12:09;;;;;;;20.00;9.23;;;;;;;-8.35;66.85;100180.62;1788288;79;21538;-72
2021/12/24 04:14:35;;;;;;;19.50;9.58;;;;;;;-8.34;66.87;100171.39;1800969;79;21015;-72
2021/12/24 04:17:03;;;;;;;20.97;9.88;;;;;;;-8.33;66.84;100165.24;1797642;79;21019;-72
2021/12/24 04:24:50;;;;;;;16.52;9.08;;;;;;;-8.33;66.79;100161.36;1777469;78;21114;-73
2021/12/24 04:24:56;;;;;;;18.23;9.55;;;;;;;-8.35;66.70;100151.64;1799064;79;21455;-72
2021/12/24 04:27:21;;;;;;;18.45;9.15;;;;;;;-8.38;66.71;100146.78;1798853;79;20971;-72
2021/12/24 04:29:47;;;;;;;13.72;7.50;;;;;;;-8.39;66.72;100141.27;1807970;78;21023;-72
2021/12/24 04:32:22;;;;;;;17.07;8.45;;;;;;;-8.41;66.74;100134.11;1804163;79;21124;-72
2021/12/24 04:35:04;;;;;;;18.60;8.18;;;;;;;-8.44;66.70;100127.92;1790362;79;20976;-71
2021/12/24 04:51:21;;;;;;;18.40;8.25;;;;;;;-8.39;66.82;100100.28;1795540;78;21004;-72
2021/12/24 05:02:17;;;;;;;16.25;8.38;;;;;;;-8.32;67.02;100103.92;1765671;81;20969;-70
2021/12/24 05:04:37;;;;;;;16.97;8.53;;;;;;;-8.29;67.05;100090.19;1763746;81;21199;-71
2021/12/24 05:07:27;;;;;;;17.70;8.33;;;;;;;-8.23;67.11;100080.19;1766069;81;21520;-71
2021/12/24 05:09:41;;;;;;;16.07;8.50;;;;;;;-8.19;67.05;100073.28;1761671;81;21005;-72
2021/12/24 05:12:10;;;;;;;14.13;7.55;;;;;;;-8.14;67.09;100066.35;1796322;79;21124;-72
2021/12/24 05:14:40;;;;;;;16.10;7.92;;;;;;;-8.12;67.03;100061.36;1800173;79;21974;-71
2021/12/24 05:17:24;;;;;;;14.13;8.10;;;;;;;-8.09;67.03;100061.55;1794297;79;21636;-70
2021/12/24 05:22:53;;;;;;;15.88;7.78;;;;;;;-7.96;66.95;100046.89;1739699;80;21526;-71
2021/12/24 05:25:21;;;;;;;16.32;8.43;;;;;;;-7.92;66.86;100046.46;1753325;79;21340;-73
2021/12/24 05:27:51;;;;;;;16.65;8.50;;;;;;;-7.88;66.86;100050.37;1789839;78;21042;-73
2021/12/24 05:30:17;;;;;;;16.32;8.40;;;;;;;-7.80;66.87;100049.16;1791741;78;21056;-72
2021/12/24 05:32:43;;;;;;;14.83;8.03;;;;;;;-7.73;66.80;100039.45;1804384;78;20947;-72
2021/12/24 05:35:10;;;;;;;14.70;7.97;;;;;;;-7.65;66.73;100042.12;1801710;79;20947;-73
2021/12/24 05:37:37;;;;;;;15.83;8.68;;;;;;;-7.60;66.64;100032.09;1800344;79;21137;-73
2021/12/24 05:40:06;;;;;;;17.75;8.65;;;;;;;-7.58;66.48;100032.77;1788526;80;20943;-73
2021/12/24 05:42:34;;;;;;;15.25;7.12;;;;;;;-7.57;66.35;100030.48;1785782;80;20967;-73
2021/12/24 05:45:05;;;;;;;12.82;6.45;;;;;;;-7.55;66.23;100030.67;1788539;80;20960;-72
2021/12/24 05:47:33;;;;;;;12.78;7.33;;;;;;;-7.53;66.14;100021.92;1790291;79;21046;-73
2021/12/24 05:50:03;;;;;;;14.33;7.78;;;;;;;-7.51;66.11;100026.00;1794951;79;22187;-73
2021/12/24 05:52:44;;;;;;;17.92;8.95;;;;;;;-7.48;66.01;100019.20;1795365;79;21438;-72
2021/12/24 05:55:18;;;;;;;14.30;7.75;;;;;;;-7.47;65.94;100019.53;1794860;79;21007;-72
2021/12/24 05:57:46;;;;;;;12.60;7.50;;;;;;;-7.42;65.86;100025.08;1803995;79;21058;-72
2021/12/24 06:00:14;;;;;;;15.28;8.50;;;;;;;-7.35;65.82;100025.28;1804676;79;20979;-71
2021/12/24 06:02:41;;;;;;;13.55;7.87;;;;;;;-7.25;65.74;100022.09;1801134;79;21119;-73
2021/12/24 06:05:08;;;;;;;12.98;7.45;;;;;;;-7.21;65.66;100019.50;1801736;79;21034;-73
2021/12/24 06:07:35;;;;;;;15.78;7.75;;;;;;;-7.18;65.51;100023.58;1799805;79;21021;-72
2021/12/24 06:10:02;;;;;;;12.90;7.62;;;;;;;-7.18;65.39;100025.69;1799469;79;21028;-72
2021/12/24 06:12:29;;;;;;;14.47;7.75;;;;;;;-7.12;65.43;100012.58;1799484;79;21515;-72
2021/12/24 06:15:02;;;;;;;15.15;8.45;;;;;;;-7.07;65.41;100011.64;1799257;79;21542;-71
2021/12/24 06:17:24;;;;;;;15.98;8.28;;;;;;;-6.98;65.39;100011.98;1798483;79;21043;-72
2021/12/24 06:19:51;;;;;;;13.95;7.58;;;;;;;-6.93;65.25;100004.55;1800079;79;21001;-72
2021/12/24 06:22:18;;;;;;;16.00;7.75;;;;;;;-6.86;65.23;100004.73;1778484;79;21078;-72
2021/12/24 06:24:45;;;;;;;13.72;7.70;;;;;;;-6.79;65.16;99998.42;1799856;79;21598;-72
2021/12/24 06:27:11;;;;;;;12.20;7.20;;;;;;;-6.72;65.14;99989.02;1801625;79;22101;-72
2021/12/24 06:29:38;;;;;;;15.05;8.20;;;;;;;-6.66;65.08;99990.49;1801398;79;20953;-72
2021/12/24 06:32:06;;;;;;;18.75;8.20;;;;;;;-6.58;65.04;99982.39;1801225;79;21539;-71
2021/12/24 06:34:33;;;;;;;14.65;7.70;;;;;;;-6.52;64.94;99976.06;1809562;78;21522;-72
2021/12/24 06:36:59;;;;;;;12.98;7.83;;;;;;;-6.48;64.88;99965.70;1805406;78;21100;-73
2021/12/24 06:39:28;;;;;;;13.60;8.10;;;;;;;-6.41;64.76;99969.27;1801249;78;21616;-72
2021/12/24 06:41:54;;;;;;;17.48;7.22;;;;;;;-6.39;64.70;99958.21;1808811;77;21043;-72
2021/12/24 06:44:22;;;;;;;13.03;7.37;;;;;;;-6.34;64.54;99953.04;1800897;79;20999;-71
2021/12/24 06:46:48;;;;;;;14.13;7.87;;;;;;;-6.34;64.46;99948.65;1801270;78;21064;-72
2021/12/24 06:49:15;;;;;;;14.47;7.92;;;;;;;-6.29;64.47;99946.36;1813930;78;21021;-71
2021/12/24 06:51:41;;;;;;;14.50;7.85;;;;;;;-6.25;64.39;99944.24;1813622;77;21092;-72
2021/12/24 06:54:10;;;;;;;13.13;7.47;;;;;;;-6.22;64.34;99944.76;1810535;78;20969;-72
2021/12/24 06:56:38;;;;;;;13.50;7.33;;;;;;;-6.17;64.24;99929.96;1803489;78;20978;-72
2021/12/24 06:59:04;;;;;;;15.03;7.92;;;;;;;-6.11;64.20;99924.11;1809328;77;21033;-72
2021/12/24 07:01:32;;;;;;;14.43;7.67;;;;;;;-6.07;64.08;99915.00;1833923;77;20929;-72
2021/12/24 07:03:59;;;;;;;15.60;8.50;;;;;;;-6.07;63.95;99907.20;1833713;78;21495;-72
2021/12/24 07:06:28;;;;;;;15.13;8.10;;;;;;;-6.04;63.92;99896.47;1816723;78;21085;-71
2021/12/24 07:08:56;;;;;;;13.95;7.75;;;;;;;-6.01;63.91;99884.45;1815252;78;21022;-72
2021/12/24 07:11:24;;;;;;;11.88;7.12;;;;;;;-5.92;63.85;99885.22;1803411;79;21101;-72
2021/12/24 07:13:52;;;;;;;14.73;7.97;;;;;;;-5.88;63.65;99868.30;1801266;78;21021;-72
2021/12/24 07:16:19;;;;;;;12.47;6.85;;;;;;;-5.88;63.45;99872.20;1800678;79;21121;-72
2021/12/24 07:18:45;;;;;;;15.18;8.25;;;;;;;-5.85;63.37;99862.77;1801104;79;21068;-72
2021/12/24 07:21:13;;;;;;;12.58;7.08;;;;;;;-5.85;63.27;99857.56;1777040;79;21067;-72
2021/12/24 07:23:40;;;;;;;13.50;7.55;;;;;;;-5.84;63.13;99862.27;1769312;79;20961;-72
2021/12/24 07:26:07;;;;;;;14.20;7.95;;;;;;;-5.81;63.19;99857.54;1769448;79;20995;-72
2021/12/24 07:28:34;;;;;;;12.15;7.42;;;;;;;-5.75;63.23;99850.38;1769857;80;21043;-72
2021/12/24 07:31:00;;;;;;;13.20;7.45;;;;;;;-5.73;62.97;99844.48;1769462;79;20955;-71
2021/12/24 07:33:26;;;;;;;14.83;7.87;;;;;;;-5.76;62.94;99841.42;1769656;79;20973;-72
2021/12/24 07:35:54;;;;;;;13.53;7.47;;;;;;;-5.78;62.94;99835.59;1769216;80;21404;-72
2021/12/24 07:38:20;;;;;;;13.55;7.75;;;;;;;-5.78;62.93;99835.10;1769855;79;21537;-72
2021/12/24 07:40:48;;;;;;;11.43;6.92;;;;;;;-5.76;63.00;99833.62;1769789;79;21480;-72
2021/12/24 07:43:15;;;;;;;14.33;8.00;;;;;;;-5.73;62.92;99837.18;1769777;79;20983;-72
2021/12/24 07:45:43;;;;;;;14.43;8.28;;;;;;;-5.74;62.83;99829.88;1769855;79;20975;-72
2021/12/24 07:48:12;;;;;;;14.58;8.20;;;;;;;-5.71;62.89;99826.13;1769932;79;20960;-72
2021/12/24 07:53:09;;;;;;;13.88;8.20;;;;;;;-5.60;62.75;99819.73;1770207;79;21784;-72
2021/12/24 07:55:37;;;;;;;13.58;8.15;;;;;;;-5.54;62.66;99814.66;1769930;79;21004;-72
2021/12/24 07:58:05;;;;;;;14.95;7.72;;;;;;;-5.53;62.56;99811.06;1772119;79;21510;-72
2021/12/24 08:00:36;;;;;;;16.10;8.20;;;;;;;-5.50;62.63;99800.31;1773349;79;20892;-72
2021/12/24 08:03:03;;;;;;;13.88;8.40;;;;;;;-5.47;62.65;99799.17;1773573;79;20999;-71
2021/12/24 08:05:33;;;;;;;14.15;7.80;;;;;;;-5.41;62.66;99799.80;1773205;79;22093;-72
2021/12/24 08:08:00;;;;;;;13.90;8.50;;;;;;;-5.30;62.60;99785.56;1773641;79;20971;-69
2021/12/24 08:10:27;;;;;;;14.23;8.33;;;;;;;-5.30;62.52;99782.47;1773434;79;20943;-73
2021/12/24 08:12:53;;;;;;;12.75;7.55;;;;;;;-5.32;62.40;99778.44;1781251;78;20900;-72
2021/12/24 08:15:20;;;;;;;14.23;8.33;;;;;;;-5.32;62.52;99778.44;1804932;79;20924;-72
2021/12/24 08:17:47;;;;;;;13.58;8.15;;;;;;;-5.24;62.61;99771.86;1803394;79;21435;-72
2021/12/24 08:20:25;;;;;;;;;;;;;;;;;;;;;
2021/12/24 08:22:45;;;;;;;15.08;8.15;;;;;;;-5.12;62.56;99763.97;1803819;78;21035;-73
2021/12/24 08:25:12;;;;;;;14.43;8.63;;;;;;;-5.07;62.52;99761.64;1773125;79;21143;-71
2021/12/24 08:27:39;;;;;;;15.53;8.38;;;;;;;-5.05;62.55;99749.27;1794905;78;20954;-71
2021/12/24 08:30:08;;;;;;;14.78;8.35;;;;;;;-5.01;62.55;99745.81;1791286;78;23349;-71
2021/12/24 08:32:40;;;;;;;13.28;8.20;;;;;;;-4.98;62.57;99737.65;1790192;78;20998;-72
2021/12/24 08:35:10;;;;;;;15.40;8.55;;;;;;;-4.90;62.61;99727.64;1796762;78;21046;-71
2021/12/24 08:37:36;;;;;;;16.25;9.15;;;;;;;-4.85;62.61;99721.42;1804359;78;21525;-71
2021/12/24 08:40:04;;;;;;;13.00;7.78;;;;;;;-4.80;62.68;99708.19;1809135;78;21391;-72
2021/12/24 08:42:33;;;;;;;12.68;7.30;;;;;;;-4.72;62.72;99705.48;1801677;78;21632;-72
2021/12/24 08:45:03;;;;;;;11.95;7.25;;;;;;;-4.61;62.80;99700.82;1803537;78;21390;-72
2021/12/24 08:47:30;;;;;;;12.70;7.45;;;;;;;-4.52;62.85;99690.63;1809632;78;21320;-72
2021/12/24 08:49:56;;;;;;;13.55;7.80;;;;;;;-4.42;62.96;99682.54;1803655;78;20995;-74
2021/12/24 08:52:22;;;;;;;10.95;6.45;;;;;;;-4.31;62.99;99674.25;1808822;78;21030;-72
2021/12/24 08:54:49;;;;;;;12.25;7.37;;;;;;;-4.19;62.91;99659.76;1806342;78;21222;-72
2021/12/24 08:57:16;;;;;;;13.50;7.30;;;;;;;-4.12;62.77;99651.52;1799115;77;21108;-71
2021/12/24 08:59:44;;;;;;;15.30;9.58;;;;;;;-4.03;62.74;99649.61;1804119;78;21049;-73
2021/12/24 09:02:11;;;;;;;12.47;7.42;;;;;;;-3.98;62.62;99645.97;1804198;78;21043;-72
2021/12/24 09:04:39;;;;;;;11.35;7.25;;;;;;;-3.90;62.56;99645.03;1813057;78;21018;-72
2021/12/24 09:07:06;;;;;;;12.95;7.83;;;;;;;-3.86;62.48;99633.23;1819958;77;22053;-72
2021/12/24 09:09:34;;;;;;;12.45;7.20;;;;;;;-3.81;62.41;99625.66;1803037;78;21069;-72
2021/12/24 09:12:01;;;;;;;14.13;8.33;;;;;;;-3.80;62.05;99629.88;1812394;77;21096;-71
2021/12/24 09:14:28;;;;;;;14.20;8.13;;;;;;;-3.92;61.99;99607.88;1803160;78;20979;-72
2021/12/24 09:17:00;;;;;;;13.28;8.43;;;;;;;-3.95;62.16;99601.23;1782234;77;22197;-72
2021/12/24 09:19:27;;;;;;;12.73;7.87;;;;;;;-3.93;62.13;99595.34;1792637;78;21810;-73
2021/12/24 09:21:56;;;;;;;13.05;8.50;;;;;;;-3.94;62.16;99589.02;1769501;80;21023;-73
2021/12/24 09:24:27;;;;;;;12.88;7.85;;;;;;;-3.90;62.29;99575.91;1770238;78;21450;-73
2021/12/24 09:26:56;;;;;;;11.47;6.93;;;;;;;-3.78;62.39;99567.39;1770524;78;21003;-73
2021/12/24 09:29:23;;;;;;;11.75;6.75;;;;;;;-3.64;62.25;99550.03;1788199;78;21013;-73
2021/12/24 09:31:50;;;;;;;11.33;7.22;;;;;;;-3.52;62.22;99539.06;1801244;79;21037;-73
2021/12/24 09:34:16;;;;;;;13.93;7.53;;;;;;;-3.40;62.18;99527.10;1800958;79;21007;-74
2021/12/24 09:36:43;;;;;;;10.45;6.33;;;;;;;-3.24;62.15;99529.41;1800526;79;21620;-73
2021/12/24 09:39:10;;;;;;;9.98;6.15;;;;;;;-3.15;61.80;99526.95;1790358;78;21003;-72
2021/12/24 09:41:37;;;;;;;10.65;6.45;;;;;;;-3.10;61.78;99524.55;1770783;79;21565;-73
2021/12/24 09:44:05;;;;;;;9.73;6.75;;;;;;;-2.97;61.51;99512.05;1768359;80;21122;-73
2021/12/24 09:46:33;;;;;;;11.25;6.30;;;;;;;-2.97;61.51;99512.05;1768769;80;21105;-73
2021/12/24 09:49:00;;;;;;;10.08;6.40;;;;;;;-2.89;61.38;99502.77;1791839;79;21396;-73
2021/12/24 09:51:27;;;;;;;11.10;6.83;;;;;;;-2.90;61.21;99492.48;1783979;78;21043;-73
2021/12/24 09:53:55;;;;;;;10.18;6.30;;;;;;;-2.88;61.15;99489.99;1768778;78;21128;-72
2021/12/24 09:56:23;;;;;;;11.53;6.30;;;;;;;-2.90;61.12;99483.34;1769068;78;21045;-71
2021/12/24 09:58:50;;;;;;;9.23;6.10;;;;;;;-2.95;61.10;99474.80;1771626;79;21018;-71
2021/12/24 10:01:35;;;;;;;10.53;6.55;;;;;;;-2.93;61.23;99478.03;1768374;79;21022;-71
2021/12/24 10:04:11;;;;;;;11.10;6.22;;;;;;;-2.95;61.16;99472.19;1768629;80;21039;-72
2021/12/24 10:06:41;;;;;;;10.98;6.95;;;;;;;-2.99;61.29;99462.33;1770421;78;21050;-72
2021/12/24 10:09:16;;;;;;;10.88;6.58;;;;;;;-3.00;61.40;99469.84;1747780;80;21038;-73
2021/12/24 10:11:49;;;;;;;13.40;7.78;;;;;;;-3.01;61.52;99459.90;1768602;80;20951;-72
2021/12/24 10:14:21;;;;;;;15.00;7.92;;;;;;;-2.94;61.65;99450.78;1798738;79;21070;-73
2021/12/24 10:16:51;;;;;;;15.93;7.65;;;;;;;-2.94;61.65;99450.78;1800968;78;20979;-72
2021/12/24 10:19:19;;;;;;;14.00;7.55;;;;;;;-2.97;61.95;99427.66;1801708;79;21057;-71
2021/12/24 10:21:47;;;;;;;13.93;8.18;;;;;;;-2.97;61.95;99427.66;1801080;79;21066;-72
2021/12/24 10:24:19;;;;;;;11.73;7.60;;;;;;;-2.92;62.17;99430.50;1801408;79;20967;-72
2021/12/24 10:26:52;;;;;;;13.68;8.05;;;;;;;-2.92;62.17;99430.50;1800983;79;21000;-72
2021/12/24 10:29:22;;;;;;;13.18;7.90;;;;;;;-2.89;62.28;99424.88;1801787;79;21026;-72
2021/12/24 10:31:54;;;;;;;11.53;7.35;;;;;;;-2.82;62.40;99427.00;1801177;79;21015;-72
2021/12/24 10:34:33;;;;;;;13.38;7.83;;;;;;;-2.77;62.40;99410.22;1801520;79;21107;-72
2021/12/24 10:37:22;;;;;;;11.30;7.17;;;;;;;-2.71;62.31;99403.39;1801011;79;21090;-72
2021/12/24 10:39:57;;;;;;;10.70;6.75;;;;;;;-2.70;62.48;99386.70;1801483;79;20971;-72
2021/12/24 10:42:36;;;;;;;17.17;7.70;;;;;;;-2.69;62.35;99385.22;1801026;79;21043;-72
2021/12/24 10:45:16;;;;;;;13.75;8.00;;;;;;;-2.68;62.32;99381.59;1801605;79;21041;-72
2021/12/24 10:47:46;;;;;;;13.40;7.90;;;;;;;-2.67;62.36;99375.34;1801274;79;39893;-73
2021/12/24 10:53:18;;;;;;;15.08;8.20;;;;;;;-2.68;62.32;99354.14;1799116;79;21085;-72
2021/12/24 10:55:53;;;;;;;11.83;7.45;;;;;;;-2.69;62.23;99351.74;1784553;79;20995;-71
2021/12/24 10:58:25;;;;;;;12.43;7.53;;;;;;;-2.69;62.38;99345.20;1801395;79;21398;-73
2021/12/24 11:00:56;;;;;;;12.40;8.13;;;;;;;-2.73;62.29;99345.28;1801481;79;21131;-73
2021/12/24 11:03:26;;;;;;;;;;;;;;;-2.78;62.40;99339.36;1803778;79;20944;-73
2021/12/24 11:05:58;;;;;;;12.37;6.87;;;;;;;-2.84;62.12;99337.03;1792154;78;20255;-74
2021/12/24 11:08:26;;;;;;;12.37;7.65;;;;;;;-2.84;62.12;99337.03;1768610;80;21474;-72
2021/12/24 11:10:57;;;;;;;12.93;7.85;;;;;;;-2.89;62.37;99339.46;1769670;80;21114;-72
2021/12/24 11:13:32;;;;;;;13.40;8.45;;;;;;;-2.91;62.53;99328.39;1770053;79;21108;-73
2021/12/24 11:16:02;;;;;;;12.60;8.23;;;;;;;-2.92;62.78;99310.31;1769719;78;20983;-73
2021/12/24 11:18:40;;;;;;;12.63;8.20;;;;;;;-2.92;62.81;99311.11;1769815;80;21023;-72
2021/12/24 11:21:11;;;;;;;12.20;8.20;;;;;;;-2.91;62.87;99301.46;1769627;80;21125;-73
2021/12/24 11:23:40;;;;;;;12.53;7.50;;;;;;;-2.96;63.02;99294.23;1770115;80;20961;-73
2021/12/24 11:26:20;;;;;;;12.28;8.23;;;;;;;-2.95;62.98;99307.59;1769796;79;21100;-72
2021/12/24 11:28:46;;;;;;;10.98;7.62;;;;;;;-2.95;63.11;99293.23;1775364;79;21123;-73
2021/12/24 11:31:28;;;;;;;12.19;8.37;;;;;;;-2.90;63.25;99296.02;1793087;78;10000540;-75
2021/12/24 11:33:55;;;;;;;13.30;8.88;;;;;;;-2.93;63.21;99290.39;1772339;78;21244;-74
2021/12/24 11:36:25;;;;;;;13.65;8.60;;;;;;;-2.88;63.33;99303.17;1770204;79;21114;-72
2021/12/24 11:38:58;;;;;;;14.25;9.40;;;;;;;-2.82;63.40;99303.39;1790726;79;21097;-70
2021/12/24 11:41:29;;;;;;;12.53;8.43;;;;;;;-2.83;63.42;99297.33;1793653;79;21080;-73
2021/12/24 11:43:56;;;;;;;14.95;8.70;;;;;;;-2.81;63.53;99291.92;1791475;79;21049;-73
2021/12/24 11:46:25;;;;;;;14.93;9.30;;;;;;;-2.79;63.60;99280.78;1785968;79;21148;-72
2021/12/24 11:48:54;;;;;;;11.63;7.67;;;;;;;-2.75;63.63;99284.59;1793641;79;21026;-73
2021/12/24 11:51:28;;;;;;;14.63;9.23;;;;;;;-2.74;63.69;99271.30;1809364;78;21602;-74
2021/12/24 11:54:02;;;;;;;15.23;8.33;;;;;;;-2.72;63.76;99268.00;1807335;78;21149;-74
2021/12/24 11:56:29;;;;;;;14.98;9.43;;;;;;;-2.69;63.86;99262.88;1773469;78;21726;-73
2021/12/24 11:58:58;;;;;;;13.25;8.55;;;;;;;-2.68;63.93;99258.74;1783925;79;21572;-75
2021/12/24 12:01:27;;;;;;;13.70;8.58;;;;;;;-2.67;64.04;99255.11;1777971;79;21102;-74
2021/12/24 12:03:58;;;;;;;10.30;6.28;;;;;;;-2.64;64.13;99257.33;1784084;79;21062;-73
2021/12/24 12:06:32;;;;;;;13.48;8.45;;;;;;;-2.60;64.19;99244.17;1794170;78;21092;-74
2021/12/24 12:09:02;;;;;;;12.93;8.10;;;;;;;-2.55;64.20;99242.75;1787211;78;21827;-74
2021/12/24 12:11:31;;;;;;;14.30;9.30;;;;;;;-2.51;64.16;99249.97;1823330;78;21093;-74
2021/12/24 12:14:09;;;;;;;13.32;8.65;;;;;;;-2.50;64.12;99237.70;1779976;78;21078;-73
2021/12/24 12:16:50;;;;;;;12.90;8.55;;;;;;;-2.50;64.15;99240.31;1774039;79;22242;-73
2021/12/24 12:22:31;;;;;;;14.45;8.43;;;;;;;-2.55;64.31;99227.06;1779686;79;21131;-73
2021/12/24 12:25:00;;;;;;;13.30;8.68;;;;;;;-2.55;64.46;99240.94;1773362;79;21046;-73
2021/12/24 12:27:55;;;;;;;13.08;8.78;;;;;;;-2.51;64.52;99228.26;1768837;79;21034;-74
2021/12/24 12:30:39;;;;;;;15.95;8.85;;;;;;;-2.46;64.58;99219.31;1774861;79;21069;-72
2021/12/24 12:33:18;;;;;;;12.55;8.95;;;;;;;-2.40;64.62;99218.50;1774384;79;21121;-72
2021/12/24 12:35:59;;;;;;;17.02;9.48;;;;;;;-2.34;64.65;99211.11;1781720;79;21074;-73
2021/12/24 12:38:33;;;;;;;12.82;8.55;;;;;;;-2.29;64.66;99209.20;1792498;78;21030;-73
2021/12/24 12:41:39;;;;;;;18.23;9.30;;;;;;;-2.28;64.59;99198.52;1786687;79;21089;-71
2021/12/24 12:44:15;;;;;;;15.20;9.18;;;;;;;-2.33;64.50;99206.70;1770646;78;21071;-72
2021/12/24 12:46:41;;;;;;;14.25;8.63;;;;;;;-2.39;64.58;99218.27;1788106;79;21791;-73
2021/12/24 12:49:11;;;;;;;14.50;9.28;;;;;;;-2.40;64.69;99227.65;1779225;78;21125;-73
2021/12/24 12:51:58;;;;;;;17.13;10.37;;;;;;;-2.41;64.71;99229.44;1657749;78;9999957;-72
2021/12/24 12:54:40;;;;;;;14.75;10.15;;;;;;;-2.42;64.77;99226.53;1799523;78;21543;-70
2021/12/24 12:57:22;;;;;;;;;;;;;;;-2.41;64.84;99220.79;1791092;79;21133;-71
2021/12/24 13:00:22;;;;;;;12.78;8.70;;;;;;;-2.42;64.94;99208.73;1661732;80;20212;-72
2021/12/24 13:05:58;;;;;;;14.00;8.68;;;;;;;-2.46;65.05;99188.73;1776704;79;21027;-75
2021/12/24 13:08:32;;;;;;;14.63;9.05;;;;;;;-2.45;65.10;99179.08;1799252;79;21019;-74
2021/12/24 13:11:12;;;;;;;12.53;8.30;;;;;;;-2.47;65.13;99180.60;1779973;78;21453;-71
2021/12/24 13:13:58;;;;;;;14.33;9.05;;;;;;;-2.47;65.24;99157.55;1769247;80;20959;-73
2021/12/24 13:16:44;;;;;;;16.80;9.53;;;;;;;-2.47;65.28;99148.40;1778403;79;20995;-72